Aviation Digital Data Service (ADDS)

Output produced by METARs form (1834 UTC 27 April 2015)
found at http://aviationweather.gov/adds/metars/
 
KLAN 271747Z 2718/2818 35007KT P6SM OVC035